Ronkonkoma, New York
Current Conditions -  °F | °C
As of 1:56 AM on Sunday 26 Oct 2014 (Local Time) from KISP Reporting Station
Overcast Overcast  
Wind Chill: 58°   Ceiling: 8000
Heat Index: 58°   Visibility: 10mi
Dew Point: 46°   Wind: 8mph
Humidity: 65%   Direction: 300°WNW
Pressure: 29.54"   Gusts: NA
Location:  40.81°N, 73.1°W
Report Text: KISP 260556Z AUTO 30007KT 10SM SCT060 OVC080 14/08 A2954 RMK AO2 SLP001 T01440078 10156 20139 55014
Loading
Personal Weather Stations






























Interactive Weather Map
Tropical Storm Tracking
New forecast layout! Learn more

10-Day Weather Forecast

Advertisements
Track Severe Weather on mobile